createdAt,value
2023-02-19T07:10:24.451Z,98.12
2023-02-19T07:11:24.459Z,98.12
2023-02-19T07:12:24.418Z,97.91
2023-02-19T07:13:24.418Z,98.16
2023-02-19T07:14:24.392Z,98.16
2023-02-19T07:15:24.389Z,97.81
2023-02-19T07:16:24.473Z,98.33
2023-02-19T07:17:24.358Z,97.55
2023-02-19T07:18:24.362Z,97.71
2023-02-19T07:19:24.346Z,97.71
2023-02-19T07:20:24.343Z,97.71
2023-02-19T07:21:24.333Z,97.61
2023-02-19T07:22:24.307Z,97.61
2023-02-19T07:23:24.287Z,97.65
2023-02-19T07:24:24.297Z,97.55
2023-02-19T07:25:24.282Z,97.75
2023-02-19T07:26:24.271Z,97.75
2023-02-19T07:27:24.268Z,97.71
2023-02-19T07:28:24.265Z,97.71
2023-02-19T07:29:24.240Z,97.55
2023-02-19T07:30:24.341Z,97.71
2023-02-19T07:31:24.517Z,97.45
2023-02-19T07:32:24.196Z,97.71
2023-02-19T07:33:24.188Z,98.33
2023-02-19T07:34:24.166Z,97.71
2023-02-19T07:35:24.191Z,98.07
2023-02-19T07:36:24.182Z,98.02
2023-02-19T07:37:24.129Z,98.37
2023-02-19T07:38:24.136Z,98.16
2023-02-19T07:39:24.110Z,98.16
2023-02-19T07:40:24.101Z,97.65
2023-02-19T07:41:24.115Z,97.75
2023-02-19T07:42:24.096Z,97.55
2023-02-19T07:43:24.064Z,97.65
2023-02-19T07:44:24.058Z,97.86
2023-02-19T07:45:24.117Z,98.16
2023-02-19T07:46:24.071Z,98.58
2023-02-19T07:47:24.037Z,98.16
2023-02-19T07:48:24.027Z,98.16
2023-02-19T07:49:24.001Z,98.27
2023-02-19T07:50:24.006Z,98.47
2023-02-19T07:51:24.028Z,98.37
2023-02-19T07:52:23.984Z,98.27
2023-02-19T07:53:23.973Z,98.74
2023-02-19T07:54:23.946Z,98.63
2023-02-19T07:55:23.930Z,98.33
2023-02-19T07:56:23.939Z,98.53
2023-02-19T07:57:23.936Z,98.58
2023-02-19T07:58:23.910Z,98.58
2023-02-19T07:59:23.890Z,98.43
2023-02-19T08:00:23.894Z,98.53
2023-02-19T08:01:23.978Z,98.74
2023-02-19T08:02:23.868Z,98.33
2023-02-19T08:03:23.862Z,98.63
2023-02-19T08:04:23.834Z,98.63
2023-02-19T08:05:23.835Z,97.91
2023-02-19T08:06:23.852Z,98.22
2023-02-19T08:07:23.814Z,98.33
2023-02-19T08:08:23.803Z,98.18
2023-02-19T08:09:23.793Z,98.18
2023-02-19T08:10:23.798Z,98.07
2023-02-19T08:11:23.754Z,97.66
2023-02-19T08:12:23.771Z,97.66
2023-02-19T08:13:23.749Z,97.66
2023-02-19T08:14:23.725Z,97.87
2023-02-19T08:15:23.718Z,97.56
2023-02-19T08:16:33.499Z,96.54
2023-02-19T08:17:24.747Z,96.64
2023-02-19T08:18:23.689Z,96.74
2023-02-19T08:19:23.670Z,96.74
2023-02-19T08:20:23.653Z,96.84
2023-02-19T08:21:23.651Z,96.54
2023-02-19T08:22:23.670Z,97.05
2023-02-19T08:23:23.615Z,96.64
2023-02-19T08:24:23.618Z,96.74
2023-02-19T08:25:23.608Z,96.84
2023-02-19T08:26:23.608Z,96.84
2023-02-19T08:27:23.593Z,96.64
2023-02-19T08:28:23.563Z,96.84
2023-02-19T08:29:23.558Z,96.95
2023-02-19T08:30:23.743Z,97.05
2023-02-19T08:31:23.778Z,97.30
2023-02-19T08:32:23.547Z,96.84
2023-02-19T08:33:23.510Z,97.15
2023-02-19T08:34:23.495Z,96.79
2023-02-19T08:35:23.491Z,96.54
2023-02-19T08:36:23.491Z,97.09
2023-02-19T08:37:23.473Z,96.74
2023-02-19T08:38:23.455Z,96.74
2023-02-19T08:39:23.442Z,97.30
2023-02-19T08:40:23.455Z,97.09
2023-02-19T08:41:23.428Z,96.74
2023-02-19T08:42:23.432Z,97.05
2023-02-19T08:43:23.427Z,96.84
2023-02-19T08:44:23.387Z,96.64
2023-02-19T08:45:23.375Z,96.74
2023-02-19T08:46:23.444Z,96.44
2023-02-19T08:47:23.391Z,96.54
2023-02-19T08:48:23.335Z,96.54
2023-02-19T08:49:23.333Z,96.64
2023-02-19T08:50:23.317Z,96.54
2023-02-19T08:51:23.326Z,96.54
2023-02-19T08:52:23.309Z,96.74
2023-02-19T08:53:23.300Z,96.74
2023-02-19T08:54:23.266Z,95.92
2023-02-19T08:55:23.266Z,96.23
2023-02-19T08:56:23.244Z,96.03
2023-02-19T08:57:23.231Z,96.58
2023-02-19T08:58:23.243Z,95.82
2023-02-19T08:59:23.209Z,95.62
2023-02-19T09:00:23.246Z,95.51
2023-02-19T09:01:23.222Z,96.13
2023-02-19T09:02:23.175Z,96.54
2023-02-19T09:03:23.325Z,95.41
2023-02-19T09:04:23.248Z,95.41
2023-02-19T09:05:23.140Z,95.78
2023-02-19T09:06:23.129Z,95.62
2023-02-19T09:07:23.118Z,95.31
2023-02-19T09:08:23.137Z,95.26
2023-02-19T09:09:23.106Z,95.37
2023-02-19T09:10:23.163Z,95.32
2023-02-19T09:11:23.086Z,94.81
2023-02-19T09:12:23.071Z,95.12
2023-02-19T09:13:23.081Z,95.12
2023-02-19T09:14:23.042Z,94.40
2023-02-19T09:15:23.044Z,94.30
2023-02-19T09:16:23.042Z,94.36
2023-02-19T09:17:23.041Z,93.33
2023-02-19T09:18:23.034Z,93.65
2023-02-19T09:19:22.988Z,93.74
2023-02-19T09:20:23.065Z,93.44
2023-02-19T09:21:22.990Z,93.13
2023-02-19T09:22:22.958Z,93.13
2023-02-19T09:23:23.015Z,92.47
2023-02-19T09:24:22.931Z,92.78
2023-02-19T09:25:22.938Z,92.27
2023-02-19T09:26:22.919Z,92.17
2023-02-19T09:27:22.892Z,91.60
2023-02-19T09:28:22.909Z,91.25
2023-02-19T09:29:22.872Z,91.05
2023-02-19T09:30:23.018Z,90.12
2023-02-19T09:31:23.065Z,90.33
2023-02-19T09:32:22.841Z,90.64
2023-02-19T09:33:22.857Z,90.27
2023-02-19T09:34:22.817Z,90.74
2023-02-19T09:35:22.809Z,90.84
2023-02-19T09:36:22.810Z,90.02
2023-02-19T09:37:22.784Z,89.82
2023-02-19T09:38:22.796Z,90.58
2023-02-19T09:39:22.781Z,89.97
2023-02-19T09:40:22.763Z,90.58
2023-02-19T09:41:22.742Z,90.27
2023-02-19T09:42:22.757Z,90.12
2023-02-19T09:43:22.733Z,90.47
2023-02-19T09:44:22.744Z,89.97
2023-02-19T09:45:22.715Z,90.27
2023-02-19T09:46:22.720Z,90.58
2023-02-19T09:47:22.671Z,90.58
2023-02-19T09:48:22.656Z,90.27
2023-02-19T09:49:24.182Z,90.78
2023-02-19T09:50:22.660Z,90.58
2023-02-19T09:51:22.645Z,90.78
2023-02-19T09:52:22.612Z,90.72
2023-02-19T09:53:22.611Z,90.37
2023-02-19T09:54:22.585Z,90.68
2023-02-19T09:55:22.595Z,90.68
2023-02-19T09:56:22.589Z,90.31
2023-02-19T09:57:22.576Z,90.82
2023-02-19T09:58:22.545Z,90.47
2023-02-19T09:59:22.533Z,90.06
2023-02-19T10:00:22.555Z,89.97
2023-02-19T10:01:22.605Z,89.65
2023-02-19T10:02:22.524Z,90.06
2023-02-19T10:03:22.495Z,90.06
2023-02-19T10:04:22.474Z,89.76
2023-02-19T10:05:22.509Z,89.35
2023-02-19T10:06:22.450Z,89.25
2023-02-19T10:07:22.474Z,89.56
2023-02-19T10:08:22.433Z,89.97
2023-02-19T10:09:22.437Z,90.27
2023-02-19T10:10:22.405Z,89.97
2023-02-19T10:11:22.398Z,91.09
2023-02-19T10:12:22.414Z,90.68
2023-02-19T10:13:22.385Z,91.50
2023-02-19T10:14:22.371Z,91.23
2023-02-19T10:15:22.372Z,91.23
2023-02-19T10:16:22.374Z,92.15
2023-02-19T10:17:22.431Z,92.25
2023-02-19T10:18:22.331Z,92.46
2023-02-19T10:19:22.325Z,92.72
2023-02-19T10:20:22.305Z,92.62
2023-02-19T10:21:22.306Z,92.62
2023-02-19T10:22:22.662Z,92.01
2023-02-19T10:23:22.282Z,92.77
2023-02-19T10:24:22.275Z,92.72
2023-02-19T10:25:22.252Z,92.05
2023-02-19T10:26:22.235Z,91.60
2023-02-19T10:27:22.250Z,91.19
2023-02-19T10:28:22.218Z,90.78
2023-02-19T10:29:22.202Z,91.29
2023-02-19T10:30:22.222Z,91.50
2023-02-19T10:31:22.347Z,91.39
2023-02-19T10:32:22.210Z,90.99
2023-02-19T10:33:22.176Z,91.46
2023-02-19T10:34:22.403Z,91.39
2023-02-19T10:35:22.148Z,90.94
2023-02-19T10:36:22.127Z,90.37
2023-02-19T10:37:22.120Z,90.47
2023-02-19T10:38:22.113Z,90.88
2023-02-19T10:39:22.109Z,90.68
2023-02-19T10:40:22.081Z,91.19
2023-02-19T10:41:22.084Z,91.29
2023-02-19T10:42:22.048Z,90.88
2023-02-19T10:43:22.051Z,90.43
2023-02-19T10:44:22.039Z,90.88
2023-02-19T10:45:22.031Z,91.29
2023-02-19T10:46:22.023Z,91.15
2023-02-19T10:47:21.994Z,91.39
2023-02-19T10:48:21.974Z,91.15
2023-02-19T10:49:22.044Z,91.19
2023-02-19T10:50:21.966Z,91.70
2023-02-19T10:51:21.969Z,91.60
2023-02-19T10:52:21.934Z,92.21
2023-02-19T10:53:21.942Z,92.21
2023-02-19T10:54:21.928Z,92.25
2023-02-19T10:55:21.916Z,92.46
2023-02-19T10:56:21.903Z,92.36
2023-02-19T10:57:21.894Z,92.97
2023-02-19T10:58:21.873Z,92.83
2023-02-19T10:59:21.861Z,92.56
2023-02-19T11:00:21.874Z,93.33
2023-02-19T11:01:21.924Z,92.83
2023-02-19T11:02:21.859Z,93.59
2023-02-19T11:03:21.842Z,93.13
2023-02-19T11:04:21.857Z,93.24
2023-02-19T11:05:21.823Z,92.83
2023-02-19T11:06:21.788Z,93.18
2023-02-19T11:07:21.766Z,93.18
2023-02-19T11:08:21.760Z,93.48
2023-02-19T11:09:21.745Z,93.79
2023-02-19T11:10:21.785Z,93.54
2023-02-19T11:11:21.735Z,93.74
2023-02-19T11:12:21.721Z,93.89
2023-02-19T11:13:21.700Z,93.33
2023-02-19T11:14:21.703Z,93.03
2023-02-19T11:15:21.686Z,93.33
2023-02-19T11:16:21.740Z,93.13
2023-02-19T11:17:21.658Z,92.93
2023-02-19T11:18:21.639Z,93.24
2023-02-19T11:19:21.644Z,93.24
2023-02-19T11:20:21.629Z,93.33
2023-02-19T11:21:21.622Z,93.50
2023-02-19T11:22:21.599Z,92.68
2023-02-19T11:23:21.589Z,92.47
2023-02-19T11:24:21.588Z,92.47
2023-02-19T11:25:21.640Z,91.76
2023-02-19T11:26:21.567Z,91.86
2023-02-19T11:27:21.564Z,92.27
2023-02-19T11:28:21.543Z,91.25
2023-02-19T11:29:21.533Z,91.56
2023-02-19T11:30:21.552Z,91.35
2023-02-19T11:31:21.597Z,91.15
2023-02-19T11:32:21.721Z,91.46
2023-02-19T11:33:21.486Z,91.25
2023-02-19T11:34:21.466Z,91.35
2023-02-19T11:35:21.475Z,90.49
2023-02-19T11:36:21.469Z,90.59
2023-02-19T11:37:21.442Z,90.08
2023-02-19T11:38:21.432Z,90.39
2023-02-19T11:39:21.425Z,90.29
2023-02-19T11:40:21.410Z,90.14
2023-02-19T11:41:21.391Z,90.25
2023-02-19T11:42:21.406Z,90.35
2023-02-19T11:43:21.386Z,89.84
2023-02-19T11:44:21.364Z,89.53
2023-02-19T11:45:21.344Z,89.32
2023-02-19T11:46:21.368Z,89.73
2023-02-19T11:47:21.340Z,89.43
2023-02-19T11:48:21.320Z,89.02
2023-02-19T11:49:21.307Z,89.02
2023-02-19T11:50:21.303Z,89.02
2023-02-19T11:51:21.294Z,88.41
2023-02-19T11:52:21.359Z,88.61
2023-02-19T11:53:21.274Z,89.02
2023-02-19T11:54:21.245Z,88.92
2023-02-19T11:55:21.240Z,89.02
2023-02-19T11:56:21.219Z,88.51
2023-02-19T11:57:21.277Z,88.76
2023-02-19T11:58:21.221Z,89.88
2023-02-19T11:59:21.191Z,89.17
2023-02-19T12:00:21.185Z,89.78
2023-02-19T12:01:21.162Z,90.55
2023-02-19T12:02:21.146Z,90.70
2023-02-19T12:03:21.151Z,90.66
2023-02-19T12:04:21.137Z,90.08
2023-02-19T12:05:21.138Z,90.59
2023-02-19T12:06:21.118Z,89.67
2023-02-19T12:07:22.976Z,90.70
2023-02-19T12:08:21.134Z,90.39
2023-02-19T12:09:21.089Z,90.55
2023-02-19T12:10:21.069Z,89.12
2023-02-19T12:11:21.057Z,89.32
2023-02-19T12:12:21.044Z,88.92
2023-02-19T12:13:21.062Z,89.53
2023-02-19T12:14:21.015Z,89.32
2023-02-19T12:15:21.020Z,88.78
2023-02-19T12:16:21.027Z,88.82
2023-02-19T12:17:21.002Z,88.98
2023-02-19T12:18:21.024Z,88.51
2023-02-19T12:19:20.971Z,88.78
2023-02-19T12:20:20.947Z,88.67
2023-02-19T12:21:20.940Z,88.12
2023-02-19T12:22:20.940Z,88.06
2023-02-19T12:23:20.929Z,88.02
2023-02-19T12:24:20.929Z,88.12
2023-02-19T12:25:20.905Z,87.10
2023-02-19T12:26:20.881Z,87.10
2023-02-19T12:27:20.871Z,87.37
2023-02-19T12:28:20.853Z,87.06
2023-02-19T12:29:20.874Z,87.26
2023-02-19T12:30:20.897Z,86.96
2023-02-19T12:31:20.991Z,86.10
2023-02-19T12:32:20.822Z,86.10
2023-02-19T12:33:20.820Z,85.69
2023-02-19T12:34:20.814Z,85.39
2023-02-19T12:35:20.787Z,85.25
2023-02-19T12:36:20.843Z,84.23
2023-02-19T12:37:20.758Z,85.31
2023-02-19T12:38:20.745Z,85.13
2023-02-19T12:39:20.754Z,82.65
2023-02-19T12:40:20.719Z,82.14
2023-02-19T12:41:20.716Z,81.79
2023-02-19T12:42:20.696Z,82.20
2023-02-19T12:43:20.719Z,82.00
2023-02-19T12:44:20.690Z,82.06
2023-02-19T12:45:20.692Z,81.21
2023-02-19T12:46:20.774Z,80.06
2023-02-19T12:47:20.660Z,79.72
2023-02-19T12:48:20.645Z,78.56
2023-02-19T12:49:20.621Z,77.01
2023-02-19T12:50:20.621Z,74.98
2023-02-19T12:51:20.617Z,74.74
2023-02-19T12:52:20.609Z,74.64
2023-02-19T12:53:20.588Z,74.33
2023-02-19T12:54:20.586Z,74.44
2023-02-19T12:55:20.592Z,74.44
2023-02-19T12:56:20.555Z,74.95
2023-02-19T12:57:20.547Z,74.98
2023-02-19T12:58:21.888Z,73.36
2023-02-19T12:59:20.524Z,73.60
2023-02-19T13:00:20.510Z,73.70
2023-02-19T13:01:20.603Z,75.05
2023-02-19T13:02:20.555Z,75.70
2023-02-19T13:03:20.468Z,76.03
2023-02-19T13:04:20.468Z,77.29
2023-02-19T13:05:20.502Z,78.24
2023-02-19T13:06:20.429Z,78.85
2023-02-19T13:07:20.440Z,78.78
2023-02-19T13:08:20.423Z,79.63
2023-02-19T13:09:20.429Z,79.84
2023-02-19T13:10:20.440Z,80.96
2023-02-19T13:11:20.592Z,81.20
2023-02-19T13:12:20.376Z,81.44
2023-02-19T13:13:20.358Z,81.54
2023-02-19T13:14:20.356Z,82.05
2023-02-19T13:15:20.347Z,82.09
2023-02-19T13:16:20.340Z,82.19
2023-02-19T13:17:20.329Z,81.79
2023-02-19T13:18:20.298Z,83.01
2023-02-19T13:19:20.309Z,82.94
2023-02-19T13:20:20.297Z,83.65
2023-02-19T13:21:20.270Z,84.00
2023-02-19T13:22:20.268Z,84.51
2023-02-19T13:23:20.256Z,85.47
2023-02-19T13:24:20.235Z,86.59
2023-02-19T13:25:20.221Z,86.53
2023-02-19T13:26:20.223Z,86.73
2023-02-19T13:27:20.209Z,87.45
2023-02-19T13:28:20.199Z,88.06
2023-02-19T13:29:20.193Z,88.20
2023-02-19T13:30:20.235Z,88.31
2023-02-19T13:31:20.273Z,89.28
2023-02-19T13:32:20.164Z,89.23
2023-02-19T13:33:20.236Z,89.02
2023-02-19T13:34:20.127Z,89.32
2023-02-19T13:35:20.325Z,89.37
2023-02-19T13:36:20.334Z,89.12
2023-02-19T13:37:20.084Z,89.02
2023-02-19T13:38:20.102Z,88.96
2023-02-19T13:39:20.064Z,89.02
2023-02-19T13:40:20.058Z,89.23
2023-02-19T13:41:20.048Z,88.85
2023-02-19T13:42:20.024Z,88.35
2023-02-19T13:43:20.070Z,89.17
2023-02-19T13:44:20.005Z,88.76
2023-02-19T13:45:19.990Z,88.35
2023-02-19T13:46:19.999Z,88.04
2023-02-19T13:47:19.993Z,88.08
2023-02-19T13:48:19.977Z,88.70
2023-02-19T13:49:19.973Z,88.90
2023-02-19T13:50:19.954Z,88.90
2023-02-19T13:51:19.936Z,89.31
2023-02-19T13:52:19.931Z,90.02
2023-02-19T13:53:19.902Z,89.92
2023-02-19T13:54:19.950Z,89.31
2023-02-19T13:55:19.893Z,90.23
2023-02-19T13:56:19.892Z,89.72
2023-02-19T13:57:19.872Z,89.37
2023-02-19T13:58:19.849Z,89.61
2023-02-19T13:59:19.845Z,89.72
2023-02-19T14:00:19.840Z,89.78
2023-02-19T14:01:19.849Z,89.88
2023-02-19T14:02:19.855Z,90.43
2023-02-19T14:03:19.791Z,90.12
2023-02-19T14:04:19.813Z,90.70
2023-02-19T14:05:19.780Z,90.64
2023-02-19T14:06:19.772Z,90.53
2023-02-19T14:07:19.742Z,90.74
2023-02-19T14:08:19.745Z,90.84
2023-02-19T14:09:19.720Z,91.25
2023-02-19T14:10:19.740Z,91.05
2023-02-19T14:11:19.703Z,90.90
2023-02-19T14:12:19.697Z,90.84
2023-02-19T14:13:19.676Z,90.94
2023-02-19T14:14:19.668Z,90.74
2023-02-19T14:15:19.688Z,90.80
2023-02-19T14:16:19.659Z,90.70
2023-02-19T14:17:19.643Z,90.59
2023-02-19T14:18:19.622Z,90.80
2023-02-19T14:19:19.621Z,90.74
2023-02-19T14:20:19.630Z,90.74
2023-02-19T14:21:19.604Z,90.64
2023-02-19T14:22:19.578Z,90.70
2023-02-19T14:23:19.565Z,91.35
2023-02-19T14:24:19.553Z,91.35
2023-02-19T14:25:19.600Z,91.56
2023-02-19T14:26:19.536Z,91.20
2023-02-19T14:27:19.518Z,91.41
2023-02-19T14:28:19.520Z,90.80
2023-02-19T14:29:19.510Z,90.12
2023-02-19T14:30:19.567Z,89.82
2023-02-19T14:31:20.047Z,89.26
2023-02-19T14:32:19.530Z,89.47
2023-02-19T14:33:19.497Z,89.78
2023-02-19T14:34:19.657Z,89.88
2023-02-19T14:35:19.428Z,89.67
2023-02-19T14:36:19.432Z,89.88
2023-02-19T14:37:19.401Z,89.58
2023-02-19T14:38:19.412Z,90.49
2023-02-19T14:39:19.394Z,89.37
2023-02-19T14:40:19.376Z,89.88
2023-02-19T14:41:19.371Z,89.26
2023-02-19T14:42:19.364Z,89.37
2023-02-19T14:43:19.335Z,89.47
2023-02-19T14:44:19.399Z,89.47
2023-02-19T14:45:19.314Z,89.26
2023-02-19T14:46:19.383Z,89.88
2023-02-19T14:47:19.303Z,88.96
2023-02-19T14:48:19.286Z,88.96
2023-02-19T14:49:19.267Z,89.06
2023-02-19T14:50:19.260Z,89.17
2023-02-19T14:51:19.272Z,88.65
2023-02-19T14:52:19.251Z,88.85
2023-02-19T14:53:19.235Z,89.06
2023-02-19T14:54:19.237Z,88.76
2023-02-19T14:55:19.218Z,88.96
2023-02-19T14:56:19.208Z,88.70
2023-02-19T14:57:19.184Z,88.39
2023-02-19T14:58:19.183Z,88.96
2023-02-19T14:59:19.170Z,88.96
2023-02-19T15:00:19.162Z,88.55
2023-02-19T15:01:19.148Z,88.85
2023-02-19T15:02:19.140Z,88.85
2023-02-19T15:03:19.147Z,88.79
2023-02-19T15:04:19.148Z,88.85
2023-02-19T15:05:19.090Z,88.76
2023-02-19T15:06:19.094Z,89.06
2023-02-19T15:07:19.100Z,88.85
2023-02-19T15:08:19.057Z,88.59
2023-02-19T15:09:19.045Z,88.04
2023-02-19T15:10:19.051Z,88.29
2023-02-19T15:11:19.022Z,87.53
2023-02-19T15:12:19.026Z,87.16
2023-02-19T15:13:18.998Z,88.08
2023-02-19T15:14:19.041Z,88.49
2023-02-19T15:15:18.986Z,88.59
2023-02-19T15:16:19.005Z,89.92
2023-02-19T15:17:18.954Z,90.33
2023-02-19T15:18:18.976Z,89.45
2023-02-19T15:19:18.960Z,89.65
2023-02-19T15:20:18.924Z,89.97
2023-02-19T15:21:18.920Z,89.90
2023-02-19T15:22:18.915Z,90.37
2023-02-19T15:23:18.903Z,89.97
2023-02-19T15:24:18.896Z,90.52
2023-02-19T15:25:18.879Z,90.27
2023-02-19T15:26:18.877Z,90.58
2023-02-19T15:27:18.856Z,90.06
2023-02-19T15:28:18.854Z,90.88
2023-02-19T15:29:18.835Z,89.97
2023-02-19T15:30:18.868Z,90.47
2023-02-19T15:31:18.926Z,90.58
2023-02-19T15:32:18.876Z,90.47
2023-02-19T15:33:18.788Z,89.80
2023-02-19T15:34:18.782Z,89.70
2023-02-19T15:35:18.754Z,89.45
2023-02-19T15:36:18.754Z,89.70
2023-02-19T15:37:18.749Z,89.70
2023-02-19T15:38:18.739Z,89.90
2023-02-19T15:39:18.750Z,89.90
2023-02-19T15:40:18.706Z,89.80
2023-02-19T15:41:18.701Z,90.31
2023-02-19T15:42:18.695Z,90.31
2023-02-19T15:43:18.684Z,89.39
2023-02-19T15:44:18.659Z,89.29
2023-02-19T15:45:18.682Z,89.80
2023-02-19T15:46:18.701Z,89.70
2023-02-19T15:47:18.642Z,89.70
2023-02-19T15:48:18.619Z,89.97
2023-02-19T15:49:18.621Z,88.88
2023-02-19T15:50:18.616Z,89.59
2023-02-19T15:51:18.601Z,89.35
2023-02-19T15:52:18.608Z,88.98
2023-02-19T15:53:18.584Z,88.98
2023-02-19T15:54:18.562Z,88.98
2023-02-19T15:55:18.538Z,89.18
2023-02-19T15:56:18.540Z,89.29
2023-02-19T15:57:18.530Z,89.50
2023-02-19T15:58:18.506Z,89.18
2023-02-19T15:59:18.486Z,89.29
2023-02-19T16:00:18.571Z,89.18
2023-02-19T16:01:18.466Z,89.50
2023-02-19T16:02:18.464Z,89.50
2023-02-19T16:03:18.776Z,89.59
2023-02-19T16:04:18.764Z,89.09
2023-02-19T16:05:18.455Z,88.78
2023-02-19T16:06:18.456Z,88.47
2023-02-19T16:07:18.409Z,88.82
2023-02-19T16:08:18.421Z,88.57
2023-02-19T16:09:18.394Z,88.17
2023-02-19T16:10:18.380Z,88.57
2023-02-19T16:11:18.353Z,89.03
2023-02-19T16:12:18.357Z,88.82
2023-02-19T16:13:18.347Z,89.09
2023-02-19T16:14:18.371Z,89.18
2023-02-19T16:15:18.326Z,89.09
2023-02-19T16:16:18.392Z,88.78
2023-02-19T16:17:18.308Z,89.12
2023-02-19T16:18:18.294Z,89.29
2023-02-19T16:19:18.325Z,89.29
2023-02-19T16:20:18.272Z,88.47
2023-02-19T16:21:18.250Z,88.62
2023-02-19T16:22:18.266Z,88.00
2023-02-19T16:23:18.236Z,87.70
2023-02-19T16:24:18.227Z,87.70
2023-02-19T16:25:18.194Z,87.90
2023-02-19T16:26:18.221Z,88.51
2023-02-19T16:27:18.179Z,88.31
2023-02-19T16:28:18.166Z,88.41
2023-02-19T16:29:18.179Z,88.10
2023-02-19T16:30:18.203Z,88.31
2023-02-19T16:31:18.209Z,87.73
2023-02-19T16:32:18.271Z,88.10
2023-02-19T16:33:18.110Z,88.62
2023-02-19T16:34:18.115Z,88.31
2023-02-19T16:35:18.081Z,88.41
2023-02-19T16:36:18.104Z,88.82
2023-02-19T16:37:18.070Z,88.71
2023-02-19T16:38:18.118Z,88.31
2023-02-19T16:39:18.070Z,88.31
2023-02-19T16:40:18.044Z,88.51
2023-02-19T16:41:18.027Z,88.41
2023-02-19T16:42:18.006Z,88.41
2023-02-19T16:43:18.025Z,88.62
2023-02-19T16:44:18.003Z,88.31
2023-02-19T16:45:17.970Z,88.20
2023-02-19T16:46:17.965Z,88.71
2023-02-19T16:47:17.959Z,88.86
2023-02-19T16:48:17.994Z,88.96
2023-02-19T16:49:17.924Z,88.76
2023-02-19T16:50:17.928Z,88.51
2023-02-19T16:51:17.922Z,88.71
2023-02-19T16:52:17.920Z,88.62
2023-02-19T16:53:17.893Z,88.56
2023-02-19T16:54:17.897Z,88.35
2023-02-19T16:55:17.885Z,88.71
2023-02-19T16:56:17.866Z,88.62
2023-02-19T16:57:17.843Z,89.06
2023-02-19T16:58:17.847Z,88.96
2023-02-19T16:59:17.843Z,88.96
2023-02-19T17:00:17.806Z,88.92
2023-02-19T17:01:17.851Z,89.03
2023-02-19T17:02:17.807Z,88.35
2023-02-19T17:03:17.768Z,88.56
2023-02-19T17:04:17.854Z,88.56
2023-02-19T17:05:17.760Z,89.06
2023-02-19T17:06:17.737Z,88.96
2023-02-19T17:07:17.738Z,88.86
2023-02-19T17:08:17.755Z,88.62
2023-02-19T17:09:17.702Z,89.06
2023-02-19T17:10:17.709Z,88.76
2023-02-19T17:11:17.691Z,89.43
2023-02-19T17:12:17.694Z,88.65
2023-02-19T17:13:17.652Z,88.71
2023-02-19T17:14:17.660Z,88.62
2023-02-19T17:15:17.651Z,88.00
2023-02-19T17:16:17.661Z,88.41
2023-02-19T17:17:17.606Z,88.04
2023-02-19T17:18:17.602Z,87.90
2023-02-19T17:19:17.598Z,88.24
2023-02-19T17:20:17.616Z,88.31
2023-02-19T17:21:17.597Z,88.04
2023-02-19T17:22:17.566Z,87.70
2023-02-19T17:23:17.556Z,87.43
2023-02-19T17:24:17.547Z,88.04
2023-02-19T17:25:17.519Z,87.43
2023-02-19T17:26:17.545Z,87.53
2023-02-19T17:27:17.512Z,87.43
2023-02-19T17:28:17.502Z,87.53
2023-02-19T17:29:17.486Z,86.91
2023-02-19T17:30:17.534Z,87.32
2023-02-19T17:31:17.623Z,87.63
2023-02-19T17:32:17.653Z,87.53
2023-02-19T17:33:17.429Z,86.91
2023-02-19T17:34:17.436Z,87.12
2023-02-19T17:35:17.421Z,87.12
2023-02-19T17:36:17.415Z,87.63
2023-02-19T17:37:17.387Z,87.84
2023-02-19T17:38:17.391Z,87.43
2023-02-19T17:39:17.377Z,87.84
2023-02-19T17:40:30.636Z,86.91
2023-02-19T17:41:18.364Z,87.73
2023-02-19T17:42:17.330Z,88.14
2023-02-19T17:43:17.328Z,87.43
2023-02-19T17:44:17.317Z,87.94
2023-02-19T17:45:17.289Z,88.04
2023-02-19T17:46:17.283Z,87.02
2023-02-19T17:47:17.278Z,87.16
2023-02-19T17:48:17.261Z,87.02
2023-02-19T17:49:17.257Z,87.06
2023-02-19T17:50:17.251Z,87.12
2023-02-19T17:51:17.259Z,87.02
2023-02-19T17:52:17.219Z,87.26
2023-02-19T17:53:17.223Z,87.02
2023-02-19T17:54:17.206Z,86.65
2023-02-19T17:55:17.189Z,86.44
2023-02-19T17:56:17.201Z,85.72
2023-02-19T17:57:17.168Z,86.34
2023-02-19T17:58:17.148Z,86.75
2023-02-19T17:59:18.348Z,86.24
2023-02-19T18:00:17.135Z,85.63
2023-02-19T18:01:17.208Z,85.83
2023-02-19T18:02:17.115Z,85.72
2023-02-19T18:03:17.110Z,85.93
2023-02-19T18:04:17.113Z,85.72
2023-02-19T18:05:17.071Z,85.31
2023-02-19T18:06:17.088Z,85.01
2023-02-19T18:07:17.063Z,84.95
2023-02-19T18:08:17.033Z,85.31
2023-02-19T18:09:17.026Z,84.50
2023-02-19T18:13:46.454Z,83.61
2023-02-19T18:14:46.430Z,83.37
2023-02-19T18:15:46.418Z,83.61
2023-02-19T18:16:49.401Z,83.61
2023-02-19T18:17:46.383Z,83.58
2023-02-19T18:18:46.379Z,83.10
2023-02-19T18:19:46.364Z,83.31
2023-02-19T18:20:46.362Z,83.61
2023-02-19T18:21:46.355Z,83.41
2023-02-19T18:22:46.333Z,83.61
2023-02-19T18:23:46.322Z,83.92
2023-02-19T18:24:46.307Z,83.51
2023-02-19T18:25:46.326Z,83.17
2023-02-19T18:26:46.297Z,83.20
2023-02-19T18:27:46.288Z,83.47
2023-02-19T18:28:46.276Z,83.31
2023-02-19T18:29:46.271Z,83.61
2023-02-19T18:30:46.534Z,83.82
2023-02-19T18:31:46.342Z,83.51
2023-02-19T18:32:46.227Z,82.90
2023-02-19T18:33:46.217Z,82.49
2023-02-19T18:34:46.207Z,82.59
2023-02-19T18:35:46.211Z,82.42
2023-02-19T18:36:46.182Z,82.18
2023-02-19T18:37:46.166Z,81.77
2023-02-19T18:38:46.162Z,82.12
2023-02-19T18:39:46.142Z,83.00
2023-02-19T18:40:46.147Z,82.01
2023-02-19T18:41:46.130Z,82.22
2023-02-19T18:42:46.104Z,82.28
2023-02-19T18:43:46.090Z,82.39
2023-02-19T18:44:46.283Z,82.93
2023-02-19T18:45:46.368Z,82.39
2023-02-19T18:46:46.054Z,82.93
2023-02-19T18:47:46.065Z,82.63
2023-02-19T18:48:46.039Z,82.12
2023-02-19T18:49:46.041Z,82.32
2023-02-19T18:50:46.031Z,82.73
2023-02-19T18:51:46.002Z,82.83
2023-02-19T18:52:46.025Z,82.73
2023-02-19T18:53:45.998Z,82.42
2023-02-19T18:54:45.964Z,82.93
2023-02-19T18:55:45.979Z,82.22
2023-02-19T18:56:45.959Z,83.14
2023-02-19T18:57:45.958Z,82.83
2023-02-19T18:58:45.917Z,82.63
2023-02-19T18:59:45.926Z,82.42
2023-02-19T19:00:45.911Z,82.32
2023-02-19T19:01:45.953Z,82.83
2023-02-19T19:02:49.798Z,82.73
2023-02-19T19:03:46.865Z,82.63
2023-02-19T19:04:45.850Z,82.26
2023-02-19T19:05:45.858Z,82.67
2023-02-19T19:06:45.827Z,82.87
2023-02-19T19:07:45.824Z,82.63
2023-02-19T19:08:45.805Z,83.04
2023-02-19T19:09:45.817Z,82.93
2023-02-19T19:10:45.819Z,82.97
2023-02-19T19:11:45.781Z,83.14
2023-02-19T19:12:45.766Z,83.65
2023-02-19T19:13:45.766Z,83.55
2023-02-19T19:14:45.754Z,83.96
2023-02-19T19:15:45.769Z,83.80
2023-02-19T19:16:45.729Z,83.80
2023-02-19T19:17:45.721Z,84.00
2023-02-19T19:18:45.706Z,83.80
2023-02-19T19:19:45.707Z,83.55
2023-02-19T19:20:45.704Z,82.97
2023-02-19T19:21:45.662Z,83.86
2023-02-19T19:22:45.677Z,83.59
2023-02-19T19:23:45.641Z,83.80
2023-02-19T19:24:45.624Z,83.80
2023-02-19T19:25:45.633Z,84.06
2023-02-19T19:26:45.604Z,84.00
2023-02-19T19:27:45.609Z,83.80
2023-02-19T19:28:45.590Z,83.80
2023-02-19T19:29:45.574Z,83.59
2023-02-19T19:30:45.595Z,83.39
2023-02-19T19:31:45.658Z,83.69
2023-02-19T19:32:45.537Z,83.59
2023-02-19T19:33:45.540Z,83.49
2023-02-19T19:34:45.514Z,83.39
2023-02-19T19:35:45.521Z,83.90
2023-02-19T19:36:45.503Z,83.80
2023-02-19T19:37:45.481Z,83.80
2023-02-19T19:38:45.477Z,83.69
2023-02-19T19:39:45.460Z,83.49
2023-02-19T19:40:45.470Z,83.59
2023-02-19T19:41:45.458Z,83.69
2023-02-19T19:42:45.432Z,83.90
2023-02-19T19:43:45.411Z,84.20
2023-02-19T19:44:45.410Z,83.80
2023-02-19T19:45:45.416Z,83.39
2023-02-19T19:46:45.389Z,83.69
2023-02-19T19:47:45.384Z,84.06
2023-02-19T19:48:45.349Z,83.90
2023-02-19T19:49:45.356Z,84.20
2023-02-19T19:50:45.372Z,83.39
2023-02-19T19:51:45.339Z,83.80
2023-02-19T19:52:45.304Z,83.59
2023-02-19T19:53:45.312Z,83.69
2023-02-19T19:54:45.283Z,83.49
2023-02-19T19:55:45.288Z,83.80
2023-02-19T19:56:45.290Z,83.59
2023-02-19T19:57:45.264Z,83.80
2023-02-19T19:58:45.248Z,83.59
2023-02-19T19:59:45.254Z,83.80
2023-02-19T20:00:45.216Z,83.80
2023-02-19T20:01:45.297Z,83.39
2023-02-19T20:02:45.262Z,83.69
2023-02-19T20:03:45.195Z,83.69
2023-02-19T20:04:45.178Z,83.69
2023-02-19T20:05:45.173Z,83.69